sensor_id;sensor_type;location;lat;lon;timestamp;temperature;humidity
79494;SHT31;68951;53.130;18.104;2024-02-21T00:00:27;7.15;79.90
79494;SHT31;68951;53.130;18.104;2024-02-21T00:03:14;7.12;80.00
79494;SHT31;68951;53.130;18.104;2024-02-21T00:05:41;7.10;80.08
79494;SHT31;68951;53.130;18.104;2024-02-21T00:08:07;7.09;80.18
79494;SHT31;68951;53.130;18.104;2024-02-21T00:10:34;7.11;80.25
79494;SHT31;68951;53.130;18.104;2024-02-21T00:13:02;7.10;80.32
79494;SHT31;68951;53.130;18.104;2024-02-21T00:15:29;7.10;80.41
79494;SHT31;68951;53.130;18.104;2024-02-21T00:17:56;7.09;80.50
79494;SHT31;68951;53.130;18.104;2024-02-21T00:20:23;7.10;80.56
79494;SHT31;68951;53.130;18.104;2024-02-21T00:22:52;7.11;80.60
79494;SHT31;68951;53.130;18.104;2024-02-21T00:25:19;7.10;80.68
79494;SHT31;68951;53.130;18.104;2024-02-21T00:27:46;7.09;80.70
79494;SHT31;68951;53.130;18.104;2024-02-21T00:30:13;7.12;80.80
79494;SHT31;68951;53.130;18.104;2024-02-21T00:32:39;7.11;80.81
79494;SHT31;68951;53.130;18.104;2024-02-21T00:35:06;7.11;80.88
79494;SHT31;68951;53.130;18.104;2024-02-21T00:37:34;7.16;80.90
79494;SHT31;68951;53.130;18.104;2024-02-21T00:40:00;7.20;80.90
79494;SHT31;68951;53.130;18.104;2024-02-21T00:42:27;7.21;80.90
79494;SHT31;68951;53.130;18.104;2024-02-21T00:44:54;7.23;80.91
79494;SHT31;68951;53.130;18.104;2024-02-21T00:47:21;7.24;80.93
79494;SHT31;68951;53.130;18.104;2024-02-21T00:49:48;7.25;80.95
79494;SHT31;68951;53.130;18.104;2024-02-21T00:52:14;7.26;80.96
79494;SHT31;68951;53.130;18.104;2024-02-21T00:54:41;7.28;80.99
79494;SHT31;68951;53.130;18.104;2024-02-21T00:57:08;7.28;80.97
79494;SHT31;68951;53.130;18.104;2024-02-21T00:59:35;7.29;81.00
79494;SHT31;68951;53.130;18.104;2024-02-21T01:02:01;7.32;81.00
79494;SHT31;68951;53.130;18.104;2024-02-21T01:04:28;7.32;80.98
79494;SHT31;68951;53.130;18.104;2024-02-21T01:06:55;7.33;80.95
79494;SHT31;68951;53.130;18.104;2024-02-21T01:09:21;7.33;80.98
79494;SHT31;68951;53.130;18.104;2024-02-21T01:11:48;7.35;80.96
79494;SHT31;68951;53.130;18.104;2024-02-21T01:14:15;7.37;80.97
79494;SHT31;68951;53.130;18.104;2024-02-21T01:16:42;7.39;80.92
79494;SHT31;68951;53.130;18.104;2024-02-21T01:19:08;7.35;80.90
79494;SHT31;68951;53.130;18.104;2024-02-21T01:21:35;7.31;80.92
79494;SHT31;68951;53.130;18.104;2024-02-21T01:24:02;7.27;80.95
79494;SHT31;68951;53.130;18.104;2024-02-21T01:26:29;7.27;81.00
79494;SHT31;68951;53.130;18.104;2024-02-21T01:28:56;7.27;81.00
79494;SHT31;68951;53.130;18.104;2024-02-21T01:31:22;7.26;81.00
79494;SHT31;68951;53.130;18.104;2024-02-21T01:33:49;7.27;81.00
79494;SHT31;68951;53.130;18.104;2024-02-21T01:36:16;7.24;81.04
79494;SHT31;68951;53.130;18.104;2024-02-21T01:38:43;7.20;81.10
79494;SHT31;68951;53.130;18.104;2024-02-21T01:41:10;7.23;81.13
79494;SHT31;68951;53.130;18.104;2024-02-21T01:43:36;7.26;81.16
79494;SHT31;68951;53.130;18.104;2024-02-21T01:46:03;7.28;81.13
79494;SHT31;68951;53.130;18.104;2024-02-21T01:48:30;7.27;81.14
79494;SHT31;68951;53.130;18.104;2024-02-21T01:50:57;7.28;81.19
79494;SHT31;68951;53.130;18.104;2024-02-21T01:53:30;7.27;81.16
79494;SHT31;68951;53.130;18.104;2024-02-21T01:56:03;7.24;81.20
79494;SHT31;68951;53.130;18.104;2024-02-21T01:58:32;7.22;81.20
79494;SHT31;68951;53.130;18.104;2024-02-21T02:01:06;7.18;81.22
79494;SHT31;68951;53.130;18.104;2024-02-21T02:03:33;7.18;81.28
79494;SHT31;68951;53.130;18.104;2024-02-21T02:06:00;7.15;81.30
79494;SHT31;68951;53.130;18.104;2024-02-21T02:08:28;7.14;81.33
79494;SHT31;68951;53.130;18.104;2024-02-21T02:10:54;7.12;81.40
79494;SHT31;68951;53.130;18.104;2024-02-21T02:13:21;7.11;81.40
79494;SHT31;68951;53.130;18.104;2024-02-21T02:15:48;7.13;81.42
79494;SHT31;68951;53.130;18.104;2024-02-21T02:18:16;7.15;81.47
79494;SHT31;68951;53.130;18.104;2024-02-21T02:20:46;7.15;81.47
79494;SHT31;68951;53.130;18.104;2024-02-21T02:23:18;7.16;81.49
79494;SHT31;68951;53.130;18.104;2024-02-21T02:25:48;7.19;81.50
79494;SHT31;68951;53.130;18.104;2024-02-21T02:28:17;7.15;81.50
79494;SHT31;68951;53.130;18.104;2024-02-21T02:30:45;7.15;81.53
79494;SHT31;68951;53.130;18.104;2024-02-21T02:33:12;7.18;81.51
79494;SHT31;68951;53.130;18.104;2024-02-21T02:35:39;7.19;81.50
79494;SHT31;68951;53.130;18.104;2024-02-21T02:38:06;7.17;81.53
79494;SHT31;68951;53.130;18.104;2024-02-21T02:40:33;7.17;81.56
79494;SHT31;68951;53.130;18.104;2024-02-21T02:43:01;7.19;81.60
79494;SHT31;68951;53.130;18.104;2024-02-21T02:45:28;7.22;81.58
79494;SHT31;68951;53.130;18.104;2024-02-21T02:47:55;7.19;81.59
79494;SHT31;68951;53.130;18.104;2024-02-21T02:50:23;7.15;81.60
79494;SHT31;68951;53.130;18.104;2024-02-21T02:52:51;7.16;81.60
79494;SHT31;68951;53.130;18.104;2024-02-21T02:55:19;7.17;81.60
79494;SHT31;68951;53.130;18.104;2024-02-21T02:57:46;7.21;81.62
79494;SHT31;68951;53.130;18.104;2024-02-21T03:00:13;7.24;81.61
79494;SHT31;68951;53.130;18.104;2024-02-21T03:02:42;7.21;81.60
79494;SHT31;68951;53.130;18.104;2024-02-21T03:05:13;7.20;81.60
79494;SHT31;68951;53.130;18.104;2024-02-21T03:07:42;7.17;81.60
79494;SHT31;68951;53.130;18.104;2024-02-21T03:10:10;7.17;81.60
79494;SHT31;68951;53.130;18.104;2024-02-21T03:12:38;7.18;81.63
79494;SHT31;68951;53.130;18.104;2024-02-21T03:15:05;7.21;81.61
79494;SHT31;68951;53.130;18.104;2024-02-21T03:17:33;7.20;81.63
79494;SHT31;68951;53.130;18.104;2024-02-21T03:20:01;7.19;81.64
79494;SHT31;68951;53.130;18.104;2024-02-21T03:22:31;7.19;81.67
79494;SHT31;68951;53.130;18.104;2024-02-21T03:24:59;7.16;81.69
79494;SHT31;68951;53.130;18.104;2024-02-21T03:27:25;7.14;81.71
79494;SHT31;68951;53.130;18.104;2024-02-21T03:29:52;7.14;81.73
79494;SHT31;68951;53.130;18.104;2024-02-21T03:32:19;7.15;81.79
79494;SHT31;68951;53.130;18.104;2024-02-21T03:34:46;7.16;81.80
79494;SHT31;68951;53.130;18.104;2024-02-21T03:37:13;7.13;81.81
79494;SHT31;68951;53.130;18.104;2024-02-21T03:39:40;7.12;81.88
79494;SHT31;68951;53.130;18.104;2024-02-21T03:42:07;7.13;81.90
79494;SHT31;68951;53.130;18.104;2024-02-21T03:44:34;7.15;81.91
79494;SHT31;68951;53.130;18.104;2024-02-21T03:47:01;7.15;81.91
79494;SHT31;68951;53.130;18.104;2024-02-21T03:49:28;7.14;81.95
79494;SHT31;68951;53.130;18.104;2024-02-21T03:51:55;7.13;82.00
79494;SHT31;68951;53.130;18.104;2024-02-21T03:54:22;7.14;82.00
79494;SHT31;68951;53.130;18.104;2024-02-21T03:56:49;7.13;82.07
79494;SHT31;68951;53.130;18.104;2024-02-21T03:59:15;7.12;82.10
79494;SHT31;68951;53.130;18.104;2024-02-21T04:01:42;7.15;82.11
79494;SHT31;68951;53.130;18.104;2024-02-21T04:04:10;7.19;82.12
79494;SHT31;68951;53.130;18.104;2024-02-21T04:06:37;7.22;82.17
79494;SHT31;68951;53.130;18.104;2024-02-21T04:09:12;7.23;82.13
79494;SHT31;68951;53.130;18.104;2024-02-21T04:11:39;7.22;82.19
79494;SHT31;68951;53.130;18.104;2024-02-21T04:14:06;7.21;82.20
79494;SHT31;68951;53.130;18.104;2024-02-21T04:16:34;7.21;82.22
79494;SHT31;68951;53.130;18.104;2024-02-21T04:19:01;7.19;82.23
79494;SHT31;68951;53.130;18.104;2024-02-21T04:21:30;7.20;82.27
79494;SHT31;68951;53.130;18.104;2024-02-21T04:23:57;7.20;82.30
79494;SHT31;68951;53.130;18.104;2024-02-21T04:26:24;7.19;82.30
79494;SHT31;68951;53.130;18.104;2024-02-21T04:28:51;7.17;82.32
79494;SHT31;68951;53.130;18.104;2024-02-21T04:31:18;7.14;82.40
79494;SHT31;68951;53.130;18.104;2024-02-21T04:33:45;7.13;82.42
79494;SHT31;68951;53.130;18.104;2024-02-21T04:36:12;7.12;82.50
79494;SHT31;68951;53.130;18.104;2024-02-21T04:38:39;7.14;82.50
79494;SHT31;68951;53.130;18.104;2024-02-21T04:41:07;7.11;82.54
79494;SHT31;68951;53.130;18.104;2024-02-21T04:43:34;7.10;82.60
79494;SHT31;68951;53.130;18.104;2024-02-21T04:46:01;7.09;82.61
79494;SHT31;68951;53.130;18.104;2024-02-21T04:48:28;7.10;82.70
79494;SHT31;68951;53.130;18.104;2024-02-21T04:50:55;7.13;82.70
79494;SHT31;68951;53.130;18.104;2024-02-21T04:53:22;7.12;82.73
79494;SHT31;68951;53.130;18.104;2024-02-21T04:55:48;7.14;82.77
79494;SHT31;68951;53.130;18.104;2024-02-21T04:58:15;7.15;82.79
79494;SHT31;68951;53.130;18.104;2024-02-21T05:00:42;7.18;82.80
79494;SHT31;68951;53.130;18.104;2024-02-21T05:03:09;7.20;82.79
79494;SHT31;68951;53.130;18.104;2024-02-21T05:05:37;7.26;82.80
79494;SHT31;68951;53.130;18.104;2024-02-21T05:08:04;7.33;82.78
79494;SHT31;68951;53.130;18.104;2024-02-21T05:10:31;7.31;82.75
79494;SHT31;68951;53.130;18.104;2024-02-21T05:12:58;7.28;82.70
79494;SHT31;68951;53.130;18.104;2024-02-21T05:15:25;7.27;82.70
79494;SHT31;68951;53.130;18.104;2024-02-21T05:17:52;7.25;82.71
79494;SHT31;68951;53.130;18.104;2024-02-21T05:20:19;7.24;82.71
79494;SHT31;68951;53.130;18.104;2024-02-21T05:22:46;7.23;82.74
79494;SHT31;68951;53.130;18.104;2024-02-21T05:25:13;7.24;82.77
79494;SHT31;68951;53.130;18.104;2024-02-21T05:27:40;7.24;82.80
79494;SHT31;68951;53.130;18.104;2024-02-21T05:30:06;7.26;82.79
79494;SHT31;68951;53.130;18.104;2024-02-21T05:32:34;7.23;82.80
79494;SHT31;68951;53.130;18.104;2024-02-21T05:35:01;7.23;82.80
79494;SHT31;68951;53.130;18.104;2024-02-21T05:37:28;7.24;82.80
79494;SHT31;68951;53.130;18.104;2024-02-21T05:39:54;7.25;82.80
79494;SHT31;68951;53.130;18.104;2024-02-21T05:42:21;7.30;82.80
79494;SHT31;68951;53.130;18.104;2024-02-21T05:44:48;7.33;82.80
79494;SHT31;68951;53.130;18.104;2024-02-21T05:47:15;7.36;82.80
79494;SHT31;68951;53.130;18.104;2024-02-21T05:49:42;7.35;82.80
79494;SHT31;68951;53.130;18.104;2024-02-21T05:52:08;7.34;82.79
79494;SHT31;68951;53.130;18.104;2024-02-21T05:54:37;7.31;82.79
79494;SHT31;68951;53.130;18.104;2024-02-21T05:57:07;7.31;82.80
79494;SHT31;68951;53.130;18.104;2024-02-21T05:59:34;7.27;82.80
79494;SHT31;68951;53.130;18.104;2024-02-21T06:02:02;7.25;82.80
79494;SHT31;68951;53.130;18.104;2024-02-21T06:04:30;7.26;82.81
79494;SHT31;68951;53.130;18.104;2024-02-21T06:06:57;7.23;82.85
79494;SHT31;68951;53.130;18.104;2024-02-21T06:09:24;7.20;82.89
79494;SHT31;68951;53.130;18.104;2024-02-21T06:11:51;7.21;82.90
79494;SHT31;68951;53.130;18.104;2024-02-21T06:14:17;7.24;82.94
79494;SHT31;68951;53.130;18.104;2024-02-21T06:16:44;7.24;82.97
79494;SHT31;68951;53.130;18.104;2024-02-21T06:19:11;7.23;82.99
79494;SHT31;68951;53.130;18.104;2024-02-21T06:21:38;7.25;83.00
79494;SHT31;68951;53.130;18.104;2024-02-21T06:24:05;7.27;83.00
79494;SHT31;68951;53.130;18.104;2024-02-21T06:26:32;7.26;83.00
79494;SHT31;68951;53.130;18.104;2024-02-21T06:28:58;7.25;83.00
79494;SHT31;68951;53.130;18.104;2024-02-21T06:31:28;7.26;83.01
79494;SHT31;68951;53.130;18.104;2024-02-21T06:33:55;7.29;83.00
79494;SHT31;68951;53.130;18.104;2024-02-21T06:36:22;7.32;83.01
79494;SHT31;68951;53.130;18.104;2024-02-21T06:38:49;7.34;83.00
79494;SHT31;68951;53.130;18.104;2024-02-21T06:41:16;7.36;83.00
79494;SHT31;68951;53.130;18.104;2024-02-21T06:43:48;7.35;83.00
79494;SHT31;68951;53.130;18.104;2024-02-21T06:46:27;7.36;83.00
79494;SHT31;68951;53.130;18.104;2024-02-21T06:48:56;7.38;82.96
79494;SHT31;68951;53.130;18.104;2024-02-21T06:51:23;7.36;82.95
79494;SHT31;68951;53.130;18.104;2024-02-21T06:53:50;7.38;82.94
79494;SHT31;68951;53.130;18.104;2024-02-21T06:56:17;7.44;82.97
79494;SHT31;68951;53.130;18.104;2024-02-21T06:58:44;7.43;82.90
79494;SHT31;68951;53.130;18.104;2024-02-21T07:01:11;7.47;82.90
79494;SHT31;68951;53.130;18.104;2024-02-21T07:03:38;7.49;82.90
79494;SHT31;68951;53.130;18.104;2024-02-21T07:06:04;7.48;82.85
79494;SHT31;68951;53.130;18.104;2024-02-21T07:08:31;7.49;82.82
79494;SHT31;68951;53.130;18.104;2024-02-21T07:10:58;7.48;82.80
79494;SHT31;68951;53.130;18.104;2024-02-21T07:13:25;7.47;82.80
79494;SHT31;68951;53.130;18.104;2024-02-21T07:15:51;7.46;82.80
79494;SHT31;68951;53.130;18.104;2024-02-21T07:18:18;7.49;82.78
79494;SHT31;68951;53.130;18.104;2024-02-21T07:20:45;7.50;82.73
79494;SHT31;68951;53.130;18.104;2024-02-21T07:23:12;7.50;82.71
79494;SHT31;68951;53.130;18.104;2024-02-21T07:25:39;7.52;82.71
79494;SHT31;68951;53.130;18.104;2024-02-21T07:28:06;7.58;82.70
79494;SHT31;68951;53.130;18.104;2024-02-21T07:30:33;7.62;82.70
79494;SHT31;68951;53.130;18.104;2024-02-21T07:33:00;7.67;82.70
79494;SHT31;68951;53.130;18.104;2024-02-21T07:35:26;7.64;82.63
79494;SHT31;68951;53.130;18.104;2024-02-21T07:37:53;7.64;82.60
79494;SHT31;68951;53.130;18.104;2024-02-21T07:40:20;7.61;82.57
79494;SHT31;68951;53.130;18.104;2024-02-21T07:42:47;7.59;82.56
79494;SHT31;68951;53.130;18.104;2024-02-21T07:45:14;7.58;82.56
79494;SHT31;68951;53.130;18.104;2024-02-21T07:47:40;7.57;82.56
79494;SHT31;68951;53.130;18.104;2024-02-21T07:50:07;7.61;82.57
79494;SHT31;68951;53.130;18.104;2024-02-21T07:52:34;7.61;82.60
79494;SHT31;68951;53.130;18.104;2024-02-21T07:55:01;7.63;82.60
79494;SHT31;68951;53.130;18.104;2024-02-21T07:57:29;7.67;82.60
79494;SHT31;68951;53.130;18.104;2024-02-21T07:59:55;7.72;82.60
79494;SHT31;68951;53.130;18.104;2024-02-21T08:02:22;7.71;82.60
79494;SHT31;68951;53.130;18.104;2024-02-21T08:04:49;7.71;82.60
79494;SHT31;68951;53.130;18.104;2024-02-21T08:07:16;7.71;82.60
79494;SHT31;68951;53.130;18.104;2024-02-21T08:09:42;7.72;82.60
79494;SHT31;68951;53.130;18.104;2024-02-21T08:12:09;7.72;82.68
79494;SHT31;68951;53.130;18.104;2024-02-21T08:14:36;7.69;82.70
79494;SHT31;68951;53.130;18.104;2024-02-21T08:17:03;7.69;82.72
79494;SHT31;68951;53.130;18.104;2024-02-21T08:19:30;7.69;82.78
79494;SHT31;68951;53.130;18.104;2024-02-21T08:21:57;7.68;82.80
79494;SHT31;68951;53.130;18.104;2024-02-21T08:24:24;7.65;82.84
79494;SHT31;68951;53.130;18.104;2024-02-21T08:26:50;7.66;82.91
79494;SHT31;68951;53.130;18.104;2024-02-21T08:29:17;7.68;82.91
79494;SHT31;68951;53.130;18.104;2024-02-21T08:31:44;7.68;83.00
79494;SHT31;68951;53.130;18.104;2024-02-21T08:34:11;7.67;83.05
79494;SHT31;68951;53.130;18.104;2024-02-21T08:36:39;7.71;83.10
79494;SHT31;68951;53.130;18.104;2024-02-21T08:39:06;7.77;83.10
79494;SHT31;68951;53.130;18.104;2024-02-21T08:41:33;7.77;83.10
79494;SHT31;68951;53.130;18.104;2024-02-21T08:44:00;7.76;83.19
79494;SHT31;68951;53.130;18.104;2024-02-21T08:46:27;7.73;83.19
79494;SHT31;68951;53.130;18.104;2024-02-21T08:48:54;7.66;83.20
79494;SHT31;68951;53.130;18.104;2024-02-21T08:51:21;7.61;83.23
79494;SHT31;68951;53.130;18.104;2024-02-21T08:53:48;7.60;83.30
79494;SHT31;68951;53.130;18.104;2024-02-21T08:56:16;7.60;83.32
79494;SHT31;68951;53.130;18.104;2024-02-21T08:58:43;7.57;83.36
79494;SHT31;68951;53.130;18.104;2024-02-21T09:01:10;7.57;83.40
79494;SHT31;68951;53.130;18.104;2024-02-21T09:03:37;7.57;83.40
79494;SHT31;68951;53.130;18.104;2024-02-21T09:06:05;7.59;83.42
79494;SHT31;68951;53.130;18.104;2024-02-21T09:08:33;7.61;83.43
79494;SHT31;68951;53.130;18.104;2024-02-21T09:11:00;7.61;83.47
79494;SHT31;68951;53.130;18.104;2024-02-21T09:13:27;7.63;83.50
79494;SHT31;68951;53.130;18.104;2024-02-21T09:15:54;7.65;83.50
79494;SHT31;68951;53.130;18.104;2024-02-21T09:18:21;7.68;83.50
79494;SHT31;68951;53.130;18.104;2024-02-21T09:20:48;7.72;83.50
79494;SHT31;68951;53.130;18.104;2024-02-21T09:23:15;7.72;83.50
79494;SHT31;68951;53.130;18.104;2024-02-21T09:25:43;7.74;83.50
79494;SHT31;68951;53.130;18.104;2024-02-21T09:28:09;7.79;83.50
79494;SHT31;68951;53.130;18.104;2024-02-21T09:30:36;7.81;83.50
79494;SHT31;68951;53.130;18.104;2024-02-21T09:33:04;7.81;83.50
79494;SHT31;68951;53.130;18.104;2024-02-21T09:35:31;7.81;83.50
79494;SHT31;68951;53.130;18.104;2024-02-21T09:37:59;7.83;83.49
79494;SHT31;68951;53.130;18.104;2024-02-21T09:40:27;7.84;83.50
79494;SHT31;68951;53.130;18.104;2024-02-21T09:42:58;7.87;83.50
79494;SHT31;68951;53.130;18.104;2024-02-21T09:45:33;7.91;83.50
79494;SHT31;68951;53.130;18.104;2024-02-21T09:48:47;7.95;83.50
79494;SHT31;68951;53.130;18.104;2024-02-21T09:50:56;7.98;83.50
79494;SHT31;68951;53.130;18.104;2024-02-21T09:53:24;7.99;83.48
79494;SHT31;68951;53.130;18.104;2024-02-21T09:55:53;7.99;83.43
79494;SHT31;68951;53.130;18.104;2024-02-21T09:58:21;8.00;83.41
79494;SHT31;68951;53.130;18.104;2024-02-21T10:00:50;8.00;83.47
79494;SHT31;68951;53.130;18.104;2024-02-21T10:03:17;8.00;83.50
79494;SHT31;68951;53.130;18.104;2024-02-21T10:05:47;8.01;83.50
79494;SHT31;68951;53.130;18.104;2024-02-21T10:08:19;7.99;83.50
79494;SHT31;68951;53.130;18.104;2024-02-21T10:10:46;7.94;83.50
79494;SHT31;68951;53.130;18.104;2024-02-21T10:13:25;7.95;83.53
79494;SHT31;68951;53.130;18.104;2024-02-21T10:16:03;7.94;83.59
79494;SHT31;68951;53.130;18.104;2024-02-21T10:18:33;7.94;83.63
79494;SHT31;68951;53.130;18.104;2024-02-21T10:21:01;7.96;83.69
79494;SHT31;68951;53.130;18.104;2024-02-21T10:23:40;7.99;83.70
79494;SHT31;68951;53.130;18.104;2024-02-21T10:26:15;8.01;83.74
79494;SHT31;68951;53.130;18.104;2024-02-21T10:28:44;8.04;83.73
79494;SHT31;68951;53.130;18.104;2024-02-21T10:31:23;8.05;83.76
79494;SHT31;68951;53.130;18.104;2024-02-21T10:33:58;8.06;83.74
79494;SHT31;68951;53.130;18.104;2024-02-21T10:36:29;8.07;83.73
79494;SHT31;68951;53.130;18.104;2024-02-21T10:38:56;8.09;83.72
79494;SHT31;68951;53.130;18.104;2024-02-21T10:41:23;8.10;83.71
79494;SHT31;68951;53.130;18.104;2024-02-21T10:43:51;8.07;83.71
79494;SHT31;68951;53.130;18.104;2024-02-21T10:46:21;8.06;83.73
79494;SHT31;68951;53.130;18.104;2024-02-21T10:49:01;8.09;83.77
79494;SHT31;68951;53.130;18.104;2024-02-21T10:51:37;8.12;83.80
79494;SHT31;68951;53.130;18.104;2024-02-21T10:54:30;8.12;83.80
79494;SHT31;68951;53.130;18.104;2024-02-21T10:57:11;8.16;83.83
79494;SHT31;68951;53.130;18.104;2024-02-21T10:59:40;8.22;83.83
79494;SHT31;68951;53.130;18.104;2024-02-21T11:02:07;8.28;83.86
79494;SHT31;68951;53.130;18.104;2024-02-21T11:04:34;8.29;83.90
79494;SHT31;68951;53.130;18.104;2024-02-21T11:07:04;8.29;83.90
79494;SHT31;68951;53.130;18.104;2024-02-21T11:09:32;8.30;83.90
79494;SHT31;68951;53.130;18.104;2024-02-21T11:12:03;8.32;83.88
79494;SHT31;68951;53.130;18.104;2024-02-21T11:14:32;8.31;83.90
79494;SHT31;68951;53.130;18.104;2024-02-21T11:17:03;8.33;83.90
79494;SHT31;68951;53.130;18.104;2024-02-21T11:19:44;8.33;83.89
79494;SHT31;68951;53.130;18.104;2024-02-21T11:22:18;8.38;83.90
79494;SHT31;68951;53.130;18.104;2024-02-21T11:24:48;8.40;83.88
79494;SHT31;68951;53.130;18.104;2024-02-21T11:27:16;8.38;83.88
79494;SHT31;68951;53.130;18.104;2024-02-21T11:29:58;8.35;83.89
79494;SHT31;68951;53.130;18.104;2024-02-21T11:32:26;8.35;83.89
79494;SHT31;68951;53.130;18.104;2024-02-21T11:37:28;8.44;83.92
79494;SHT31;68951;53.130;18.104;2024-02-21T11:40:00;8.48;83.92
79494;SHT31;68951;53.130;18.104;2024-02-21T11:42:27;8.52;83.90
79494;SHT31;68951;53.130;18.104;2024-02-21T11:44:56;8.57;83.90
79494;SHT31;68951;53.130;18.104;2024-02-21T11:47:24;8.60;83.87
79494;SHT31;68951;53.130;18.104;2024-02-21T11:49:51;8.59;83.80
79494;SHT31;68951;53.130;18.104;2024-02-21T11:52:21;8.62;83.76
79494;SHT31;68951;53.130;18.104;2024-02-21T11:54:51;8.65;83.70
79494;SHT31;68951;53.130;18.104;2024-02-21T11:57:18;8.65;83.69
79494;SHT31;68951;53.130;18.104;2024-02-21T11:59:46;8.69;83.65
79494;SHT31;68951;53.130;18.104;2024-02-21T12:02:14;8.69;83.59
79494;SHT31;68951;53.130;18.104;2024-02-21T12:04:41;8.67;83.55
79494;SHT31;68951;53.130;18.104;2024-02-21T12:07:10;8.69;83.50
79494;SHT31;68951;53.130;18.104;2024-02-21T12:09:37;8.67;83.45
79494;SHT31;68951;53.130;18.104;2024-02-21T12:12:04;8.67;83.41
79494;SHT31;68951;53.130;18.104;2024-02-21T12:14:33;8.66;83.39
79494;SHT31;68951;53.130;18.104;2024-02-21T12:17:02;8.65;83.37
79494;SHT31;68951;53.130;18.104;2024-02-21T12:19:33;8.67;83.33
79494;SHT31;68951;53.130;18.104;2024-02-21T12:22:00;8.66;83.33
79494;SHT31;68951;53.130;18.104;2024-02-21T12:24:32;8.68;83.31
79494;SHT31;68951;53.130;18.104;2024-02-21T12:26:59;8.71;83.30
79494;SHT31;68951;53.130;18.104;2024-02-21T12:29:26;8.72;83.30
79494;SHT31;68951;53.130;18.104;2024-02-21T12:31:53;8.72;83.23
79494;SHT31;68951;53.130;18.104;2024-02-21T12:34:25;8.72;83.20
79494;SHT31;68951;53.130;18.104;2024-02-21T12:36:53;8.74;83.19
79494;SHT31;68951;53.130;18.104;2024-02-21T12:39:20;8.76;83.13
79494;SHT31;68951;53.130;18.104;2024-02-21T12:41:46;8.74;83.10
79494;SHT31;68951;53.130;18.104;2024-02-21T12:44:13;8.73;83.04
79494;SHT31;68951;53.130;18.104;2024-02-21T12:46:40;8.74;83.00
79494;SHT31;68951;53.130;18.104;2024-02-21T12:49:07;8.74;83.00
79494;SHT31;68951;53.130;18.104;2024-02-21T12:51:34;8.72;83.00
79494;SHT31;68951;53.130;18.104;2024-02-21T12:54:02;8.73;82.99
79494;SHT31;68951;53.130;18.104;2024-02-21T12:56:31;8.73;83.00
79494;SHT31;68951;53.130;18.104;2024-02-21T12:58:58;8.73;82.94
79494;SHT31;68951;53.130;18.104;2024-02-21T13:01:25;8.73;82.95
79494;SHT31;68951;53.130;18.104;2024-02-21T13:03:52;8.73;82.94
79494;SHT31;68951;53.130;18.104;2024-02-21T13:06:20;8.76;83.00
79494;SHT31;68951;53.130;18.104;2024-02-21T13:08:47;8.73;82.99
79494;SHT31;68951;53.130;18.104;2024-02-21T13:11:14;8.73;83.00
79494;SHT31;68951;53.130;18.104;2024-02-21T13:13:41;8.72;83.02
79494;SHT31;68951;53.130;18.104;2024-02-21T13:16:07;8.72;83.10
79494;SHT31;68951;53.130;18.104;2024-02-21T13:18:34;8.73;83.10
79494;SHT31;68951;53.130;18.104;2024-02-21T13:21:04;8.75;83.20
79494;SHT31;68951;53.130;18.104;2024-02-21T13:23:31;8.76;83.20
79494;SHT31;68951;53.130;18.104;2024-02-21T13:25:59;8.76;83.22
79494;SHT31;68951;53.130;18.104;2024-02-21T13:28:26;8.76;83.27
79494;SHT31;68951;53.130;18.104;2024-02-21T13:30:53;8.74;83.30
79494;SHT31;68951;53.130;18.104;2024-02-21T13:33:20;8.73;83.30
79494;SHT31;68951;53.130;18.104;2024-02-21T13:35:47;8.69;83.34
79494;SHT31;68951;53.130;18.104;2024-02-21T13:38:14;8.69;83.40
79494;SHT31;68951;53.130;18.104;2024-02-21T13:40:41;8.67;83.41
79494;SHT31;68951;53.130;18.104;2024-02-21T13:43:08;8.66;83.46
79494;SHT31;68951;53.130;18.104;2024-02-21T13:45:35;8.67;83.50
79494;SHT31;68951;53.130;18.104;2024-02-21T13:48:02;8.66;83.56
79494;SHT31;68951;53.130;18.104;2024-02-21T13:50:32;8.67;83.60
79494;SHT31;68951;53.130;18.104;2024-02-21T13:53:00;8.66;83.60
79494;SHT31;68951;53.130;18.104;2024-02-21T13:55:27;8.67;83.70
79494;SHT31;68951;53.130;18.104;2024-02-21T13:57:54;8.66;83.70
79494;SHT31;68951;53.130;18.104;2024-02-21T14:00:21;8.66;83.77
79494;SHT31;68951;53.130;18.104;2024-02-21T14:02:47;8.65;83.82
79494;SHT31;68951;53.130;18.104;2024-02-21T14:05:14;8.66;83.88
79494;SHT31;68951;53.130;18.104;2024-02-21T14:07:41;8.67;83.90
79494;SHT31;68951;53.130;18.104;2024-02-21T14:10:08;8.67;83.90
79494;SHT31;68951;53.130;18.104;2024-02-21T14:12:36;8.68;83.95
79494;SHT31;68951;53.130;18.104;2024-02-21T14:15:03;8.71;83.98
79494;SHT31;68951;53.130;18.104;2024-02-21T14:17:31;8.71;84.00
79494;SHT31;68951;53.130;18.104;2024-02-21T14:19:58;8.73;84.00
79494;SHT31;68951;53.130;18.104;2024-02-21T14:35:16;9.12;83.72
79494;SHT31;68951;53.130;18.104;2024-02-21T14:37:43;8.99;83.67
79494;SHT31;68951;53.130;18.104;2024-02-21T14:40:10;8.91;83.63
79494;SHT31;68951;53.130;18.104;2024-02-21T14:42:38;8.85;83.60
79494;SHT31;68951;53.130;18.104;2024-02-21T14:45:05;8.80;83.60
79494;SHT31;68951;53.130;18.104;2024-02-21T14:47:33;8.79;83.61
79494;SHT31;68951;53.130;18.104;2024-02-21T14:50:01;8.75;83.63
79494;SHT31;68951;53.130;18.104;2024-02-21T14:52:31;8.75;83.70
79494;SHT31;68951;53.130;18.104;2024-02-21T14:54:59;8.73;83.70
79494;SHT31;68951;53.130;18.104;2024-02-21T14:57:29;8.71;83.70
79494;SHT31;68951;53.130;18.104;2024-02-21T14:59:55;8.66;83.70
79494;SHT31;68951;53.130;18.104;2024-02-21T15:02:25;8.66;83.70
79494;SHT31;68951;53.130;18.104;2024-02-21T15:04:53;8.67;83.70
79494;SHT31;68951;53.130;18.104;2024-02-21T15:07:20;8.67;83.70
79494;SHT31;68951;53.130;18.104;2024-02-21T15:09:51;8.66;83.70
79494;SHT31;68951;53.130;18.104;2024-02-21T15:12:18;8.66;83.70
79494;SHT31;68951;53.130;18.104;2024-02-21T15:14:45;8.65;83.70
79494;SHT31;68951;53.130;18.104;2024-02-21T15:17:12;8.65;83.70
79494;SHT31;68951;53.130;18.104;2024-02-21T15:19:39;8.69;83.70
79494;SHT31;68951;53.130;18.104;2024-02-21T15:22:10;8.67;83.70
79494;SHT31;68951;53.130;18.104;2024-02-21T15:24:40;8.67;83.70
79494;SHT31;68951;53.130;18.104;2024-02-21T15:27:07;8.69;83.70
79494;SHT31;68951;53.130;18.104;2024-02-21T15:29:35;8.70;83.67
79494;SHT31;68951;53.130;18.104;2024-02-21T15:32:02;8.69;83.63
79494;SHT31;68951;53.130;18.104;2024-02-21T15:34:30;8.67;83.60
79494;SHT31;68951;53.130;18.104;2024-02-21T15:36:57;8.65;83.60
79494;SHT31;68951;53.130;18.104;2024-02-21T15:39:25;8.67;83.60
79494;SHT31;68951;53.130;18.104;2024-02-21T15:41:54;8.64;83.59
79494;SHT31;68951;53.130;18.104;2024-02-21T15:44:22;8.61;83.56
79494;SHT31;68951;53.130;18.104;2024-02-21T15:46:49;8.61;83.50
79494;SHT31;68951;53.130;18.104;2024-02-21T15:49:17;8.55;83.50